createdAt,value
2022-12-27T00:00:18.558Z,7.22
2022-12-27T00:03:06.618Z,6.45
2022-12-27T00:05:34.370Z,7.22
2022-12-27T00:08:02.402Z,8.07
2022-12-27T00:10:30.114Z,7.28
2022-12-27T00:12:58.201Z,7.43
2022-12-27T00:15:26.580Z,7.47
2022-12-27T00:17:54.513Z,8.05
2022-12-27T00:20:22.323Z,7.22
2022-12-27T00:22:50.365Z,7.72
2022-12-27T00:25:18.095Z,7.55
2022-12-27T00:27:46.036Z,6.45
2022-12-27T00:30:13.901Z,6.63
2022-12-27T00:32:41.923Z,6.38
2022-12-27T00:35:10.108Z,6.22
2022-12-27T00:37:37.982Z,6.50
2022-12-27T00:40:06.139Z,5.63
2022-12-27T00:42:34.158Z,5.82
2022-12-27T00:45:01.723Z,5.15
2022-12-27T00:47:29.642Z,5.53
2022-12-27T00:49:57.244Z,5.55
2022-12-27T00:52:25.154Z,5.65
2022-12-27T00:54:52.785Z,4.88
2022-12-27T00:57:21.566Z,4.93
2022-12-27T00:59:49.165Z,5.50
2022-12-27T01:02:17.161Z,5.00
2022-12-27T01:04:45.225Z,6.00
2022-12-27T01:07:13.201Z,5.03
2022-12-27T01:09:40.677Z,5.05
2022-12-27T01:12:08.587Z,4.60
2022-12-27T01:14:36.256Z,4.63
2022-12-27T01:17:04.181Z,4.85
2022-12-27T01:19:31.838Z,5.00
2022-12-27T01:21:59.720Z,4.60
2022-12-27T01:24:27.365Z,5.18
2022-12-27T01:26:55.298Z,4.93
2022-12-27T01:29:22.952Z,4.03
2022-12-27T01:31:51.491Z,4.97
2022-12-27T01:34:19.748Z,3.40
2022-12-27T01:36:47.724Z,4.18
2022-12-27T01:39:15.534Z,4.43
2022-12-27T01:42:03.886Z,3.83
2022-12-27T01:44:41.024Z,3.88
2022-12-27T01:48:10.964Z,3.60
2022-12-27T01:50:49.204Z,3.33
2022-12-27T01:53:25.739Z,2.72
2022-12-27T01:56:04.916Z,2.42
2022-12-27T01:58:50.166Z,2.65
2022-12-27T02:01:28.349Z,2.28
2022-12-27T02:04:15.822Z,1.80
2022-12-27T02:06:43.912Z,2.03
2022-12-27T02:09:11.805Z,3.10
2022-12-27T02:11:51.858Z,2.17
2022-12-27T02:14:47.149Z,1.85
2022-12-27T02:17:28.449Z,1.42
2022-12-27T02:20:18.897Z,1.95
2022-12-27T02:23:39.932Z,1.45
2022-12-27T02:26:45.078Z,1.75
2022-12-27T02:29:35.467Z,1.83
2022-12-27T02:32:12.208Z,1.83
2022-12-27T02:34:51.432Z,1.50
2022-12-27T02:37:21.473Z,1.52
2022-12-27T02:39:51.775Z,2.15
2022-12-27T02:42:39.385Z,1.73
2022-12-27T02:45:39.342Z,1.90
2022-12-27T02:48:33.575Z,1.75
2022-12-27T02:51:58.502Z,1.30
2022-12-27T02:55:14.027Z,1.25
2022-12-27T02:57:52.757Z,1.30
2022-12-27T03:00:43.315Z,1.08
2022-12-27T03:03:44.965Z,1.30
2022-12-27T03:06:52.469Z,1.20
2022-12-27T03:10:19.620Z,1.30
2022-12-27T03:13:45.573Z,1.52
2022-12-27T03:16:25.178Z,1.30
2022-12-27T03:19:12.774Z,1.23
2022-12-27T03:22:07.892Z,1.83
2022-12-27T03:24:59.221Z,1.98
2022-12-27T03:27:36.357Z,1.83
2022-12-27T03:30:28.356Z,2.03
2022-12-27T03:33:13.949Z,2.45
2022-12-27T03:36:11.058Z,2.47
2022-12-27T03:39:00.952Z,2.85
2022-12-27T03:41:55.068Z,2.97
2022-12-27T03:44:25.651Z,2.63
2022-12-27T03:47:48.377Z,3.25
2022-12-27T03:50:36.538Z,3.70
2022-12-27T03:53:21.558Z,5.30
2022-12-27T03:55:50.108Z,5.85
2022-12-27T03:58:18.078Z,7.63
2022-12-27T04:00:45.803Z,7.45
2022-12-27T04:03:13.919Z,9.32
2022-12-27T04:05:41.650Z,7.78
2022-12-27T04:08:28.386Z,7.65
2022-12-27T04:11:14.567Z,7.03
2022-12-27T04:14:01.034Z,8.68
2022-12-27T04:16:47.386Z,7.70
2022-12-27T04:19:33.953Z,8.88
2022-12-27T04:22:20.231Z,9.73
2022-12-27T04:25:07.108Z,10.18
2022-12-27T04:27:53.457Z,10.23
2022-12-27T04:30:40.110Z,9.45
2022-12-27T04:33:26.380Z,10.13
2022-12-27T04:35:54.484Z,9.77
2022-12-27T04:38:22.545Z,9.50
2022-12-27T04:41:09.408Z,9.98
2022-12-27T04:43:55.736Z,9.40
2022-12-27T04:46:44.655Z,10.20
2022-12-27T04:49:42.596Z,9.45
2022-12-27T04:52:41.502Z,11.10
2022-12-27T04:55:22.567Z,10.90
2022-12-27T04:57:52.658Z,11.75
2022-12-27T05:00:41.156Z,12.75
2022-12-27T05:03:16.526Z,11.60
2022-12-27T05:05:45.387Z,12.50
2022-12-27T05:08:33.754Z,12.95
2022-12-27T05:11:20.043Z,13.98
2022-12-27T05:13:59.970Z,13.70
2022-12-27T05:16:40.008Z,12.10
2022-12-27T05:19:11.415Z,10.30
2022-12-27T05:22:01.623Z,8.65
2022-12-27T05:24:50.851Z,10.13
2022-12-27T05:27:19.540Z,8.18
2022-12-27T05:29:47.686Z,7.88
2022-12-27T05:32:15.311Z,5.63
2022-12-27T05:34:43.298Z,5.07
2022-12-27T05:37:10.872Z,4.78
2022-12-27T05:39:38.920Z,4.72
2022-12-27T05:42:06.767Z,4.25
2022-12-27T05:44:34.635Z,3.72
2022-12-27T05:47:02.326Z,3.83
2022-12-27T05:49:30.340Z,3.78
2022-12-27T05:51:57.995Z,2.50
2022-12-27T05:54:25.919Z,2.65
2022-12-27T05:56:53.524Z,3.53
2022-12-27T05:59:21.508Z,2.97
2022-12-27T06:01:49.221Z,3.38
2022-12-27T06:04:17.262Z,3.38
2022-12-27T06:06:44.907Z,2.78
2022-12-27T06:09:12.942Z,3.00
2022-12-27T06:11:40.449Z,2.75
2022-12-27T06:14:08.306Z,2.72
2022-12-27T06:16:37.464Z,1.77
2022-12-27T06:21:33.016Z,2.75
2022-12-27T06:24:00.945Z,1.52
2022-12-27T06:26:30.194Z,2.17
2022-12-27T06:28:58.973Z,2.22
2022-12-27T06:31:27.420Z,2.20
2022-12-27T06:33:56.245Z,1.63
2022-12-27T06:36:30.973Z,1.77
2022-12-27T06:39:00.410Z,2.08
2022-12-27T06:41:28.006Z,2.65
2022-12-27T06:43:58.185Z,2.30
2022-12-27T06:46:26.039Z,2.78
2022-12-27T06:48:53.960Z,2.40
2022-12-27T06:51:21.896Z,3.05
2022-12-27T06:53:50.300Z,3.08
2022-12-27T06:56:21.899Z,3.53
2022-12-27T06:58:51.331Z,3.75
2022-12-27T07:01:25.380Z,4.38
2022-12-27T07:03:56.463Z,3.70
2022-12-27T07:06:26.163Z,3.92
2022-12-27T07:08:56.749Z,5.20
2022-12-27T07:11:25.307Z,5.90
2022-12-27T07:13:55.887Z,6.70
2022-12-27T07:16:27.601Z,5.80
2022-12-27T07:18:58.650Z,6.40
2022-12-27T07:21:29.238Z,5.00
2022-12-27T07:23:57.844Z,5.82
2022-12-27T07:26:30.073Z,5.80
2022-12-27T07:29:01.056Z,4.90
2022-12-27T07:31:32.751Z,5.50
2022-12-27T07:34:03.862Z,4.43
2022-12-27T07:36:37.134Z,5.40
2022-12-27T07:39:07.182Z,5.10
2022-12-27T07:41:35.888Z,5.15
2022-12-27T07:44:04.212Z,4.82
2022-12-27T07:46:31.896Z,5.03
2022-12-27T07:49:00.507Z,4.47
2022-12-27T07:51:29.759Z,4.40
2022-12-27T07:56:27.739Z,6.28
2022-12-27T07:58:58.657Z,7.82
2022-12-27T08:01:30.262Z,7.03
2022-12-27T08:03:57.922Z,7.22
2022-12-27T08:06:30.550Z,6.47
2022-12-27T08:09:03.716Z,7.25
2022-12-27T08:11:31.724Z,8.32
2022-12-27T08:14:00.088Z,8.87
2022-12-27T08:16:28.156Z,8.13
2022-12-27T08:18:56.338Z,11.13
2022-12-27T08:21:24.270Z,11.50
2022-12-27T08:23:52.210Z,10.27
2022-12-27T08:26:21.356Z,9.82
2022-12-27T08:28:49.019Z,9.55
2022-12-27T08:31:16.998Z,8.80
2022-12-27T08:33:44.928Z,7.78
2022-12-27T08:36:54.048Z,6.85
2022-12-27T08:39:01.062Z,6.18
2022-12-27T08:41:29.011Z,8.02
2022-12-27T08:43:56.572Z,4.30
2022-12-27T08:46:24.550Z,4.95
2022-12-27T08:48:52.227Z,6.07
2022-12-27T08:51:31.361Z,3.22
2022-12-27T08:54:00.629Z,4.90
2022-12-27T08:56:28.540Z,6.07
2022-12-27T08:58:56.051Z,6.38
2022-12-27T09:01:25.593Z,5.70
2022-12-27T09:03:53.213Z,6.63
2022-12-27T09:06:23.991Z,7.43
2022-12-27T09:08:52.758Z,6.57
2022-12-27T09:11:27.868Z,6.43
2022-12-27T09:13:58.020Z,5.20
2022-12-27T09:16:28.646Z,4.55
2022-12-27T09:18:58.834Z,5.38
2022-12-27T09:21:30.361Z,6.78
2022-12-27T09:23:58.308Z,10.43
2022-12-27T09:26:30.142Z,9.90
2022-12-27T09:28:59.619Z,8.75
2022-12-27T09:31:28.157Z,8.57
2022-12-27T09:33:56.834Z,9.57
2022-12-27T09:36:28.305Z,7.30
2022-12-27T09:38:58.588Z,9.25
2022-12-27T09:44:56.810Z,8.65
2022-12-27T09:47:39.491Z,8.48
2022-12-27T09:50:20.855Z,8.55
2022-12-27T09:53:10.775Z,8.50
2022-12-27T09:55:47.258Z,8.38
2022-12-27T09:58:47.004Z,9.50
2022-12-27T10:01:24.548Z,10.20
2022-12-27T10:03:53.317Z,9.93
2022-12-27T10:06:51.057Z,8.50
2022-12-27T10:09:45.720Z,9.00
2022-12-27T10:12:32.043Z,11.55
2022-12-27T10:15:49.408Z,12.18
2022-12-27T10:18:28.952Z,10.18
2022-12-27T10:21:17.058Z,10.82
2022-12-27T10:23:52.841Z,10.52
2022-12-27T10:26:21.839Z,11.02
2022-12-27T10:29:24.092Z,11.95
2022-12-27T10:31:52.932Z,10.20
2022-12-27T10:34:24.866Z,9.85
2022-12-27T10:36:53.532Z,9.90
2022-12-27T10:39:28.658Z,9.15
2022-12-27T10:42:37.343Z,9.95
2022-12-27T10:45:36.254Z,9.70
2022-12-27T10:48:32.156Z,10.20
2022-12-27T10:51:11.398Z,11.68
2022-12-27T10:54:01.697Z,11.40
2022-12-27T10:56:34.412Z,11.73
2022-12-27T10:59:13.503Z,11.60
2022-12-27T11:01:41.339Z,13.27
2022-12-27T11:04:19.851Z,11.73
2022-12-27T11:07:14.098Z,9.30
2022-12-27T11:09:50.215Z,10.00
2022-12-27T11:12:26.027Z,9.32
2022-12-27T11:15:02.960Z,10.55
2022-12-27T11:17:42.208Z,9.75
2022-12-27T11:23:09.450Z,10.63
2022-12-27T11:25:58.785Z,10.40
2022-12-27T11:28:26.195Z,9.77
2022-12-27T11:31:02.396Z,10.82
2022-12-27T11:33:47.374Z,10.23
2022-12-27T11:36:28.570Z,11.55
2022-12-27T11:38:56.911Z,11.15
2022-12-27T11:41:42.781Z,11.25
2022-12-27T11:44:19.190Z,11.65
2022-12-27T11:47:03.614Z,11.63
2022-12-27T11:49:46.546Z,10.73
2022-12-27T11:53:12.654Z,12.25
2022-12-27T11:56:19.633Z,11.88
2022-12-27T11:59:19.332Z,13.68
2022-12-27T12:02:14.364Z,13.45
2022-12-27T12:05:14.741Z,12.40
2022-12-27T12:08:05.881Z,13.52
2022-12-27T12:11:03.042Z,12.88
2022-12-27T12:14:43.713Z,11.05
2022-12-27T12:17:55.697Z,10.45
2022-12-27T12:21:02.590Z,10.68
2022-12-27T12:24:04.410Z,9.30
2022-12-27T12:27:09.988Z,11.43
2022-12-27T12:30:12.837Z,14.65
2022-12-27T12:33:07.820Z,10.57
2022-12-27T12:35:59.213Z,8.40
2022-12-27T12:38:56.506Z,6.82
2022-12-27T12:41:44.683Z,5.03
2022-12-27T12:44:23.484Z,5.68
2022-12-27T12:47:52.243Z,6.22
2022-12-27T12:50:53.578Z,6.57
2022-12-27T12:54:07.573Z,6.25
2022-12-27T12:56:49.784Z,5.90
2022-12-27T12:59:41.355Z,6.88
2022-12-27T13:02:51.909Z,6.93
2022-12-27T13:05:26.003Z,7.72
2022-12-27T13:09:04.275Z,7.70
2022-12-27T13:11:41.212Z,7.35
2022-12-27T13:14:31.526Z,8.60
2022-12-27T13:17:15.657Z,9.20
2022-12-27T13:20:22.716Z,8.52
2022-12-27T13:23:28.471Z,8.40
2022-12-27T13:26:21.512Z,8.07
2022-12-27T13:29:29.171Z,8.55
2022-12-27T13:32:27.899Z,7.95
2022-12-27T13:35:20.572Z,6.72
2022-12-27T13:38:26.756Z,7.22
2022-12-27T13:41:11.260Z,9.27
2022-12-27T13:44:22.341Z,6.55
2022-12-27T13:47:16.141Z,5.93
2022-12-27T13:50:01.888Z,6.05
2022-12-27T13:52:59.994Z,5.15
2022-12-27T13:56:27.687Z,5.38
2022-12-27T13:59:31.433Z,5.47
2022-12-27T14:02:37.541Z,5.78
2022-12-27T14:05:38.040Z,5.28
2022-12-27T14:08:46.469Z,3.40
2022-12-27T14:11:43.407Z,3.83
2022-12-27T14:14:17.177Z,3.80
2022-12-27T14:17:08.468Z,3.47
2022-12-27T14:20:11.144Z,2.72
2022-12-27T14:23:08.713Z,3.58
2022-12-27T14:26:18.385Z,3.47
2022-12-27T14:29:22.872Z,3.00
2022-12-27T14:32:14.141Z,3.65
2022-12-27T14:35:02.176Z,3.78
2022-12-27T14:37:59.810Z,2.17
2022-12-27T14:41:08.546Z,2.80
2022-12-27T14:44:41.856Z,3.05
2022-12-27T14:47:34.835Z,3.75
2022-12-27T14:50:42.055Z,3.05
2022-12-27T14:53:52.629Z,3.05
2022-12-27T14:56:48.439Z,1.48
2022-12-27T14:59:52.974Z,2.33
2022-12-27T15:02:41.988Z,2.20
2022-12-27T15:05:43.483Z,3.45
2022-12-27T15:08:58.734Z,2.38
2022-12-27T15:11:49.199Z,2.08
2022-12-27T15:15:19.520Z,1.87
2022-12-27T15:18:09.831Z,2.13
2022-12-27T15:21:08.774Z,2.00
2022-12-27T15:26:46.828Z,2.00
2022-12-27T15:29:32.091Z,2.03
2022-12-27T15:32:16.783Z,2.47
2022-12-27T15:35:24.619Z,2.50
2022-12-27T15:38:18.146Z,3.33
2022-12-27T15:41:37.184Z,3.63
2022-12-27T15:44:24.642Z,3.83
2022-12-27T15:47:15.973Z,3.25
2022-12-27T15:50:24.692Z,4.05
2022-12-27T15:53:45.326Z,4.05
2022-12-27T15:56:21.198Z,3.97
2022-12-27T15:59:37.736Z,4.05
2022-12-27T16:02:17.174Z,3.72
2022-12-27T16:05:10.659Z,3.50
2022-12-27T16:07:47.446Z,4.22
2022-12-27T16:10:42.544Z,3.50
2022-12-27T16:13:10.565Z,3.45
2022-12-27T16:15:53.749Z,3.17
2022-12-27T16:18:24.017Z,4.35
2022-12-27T16:20:59.574Z,2.40
2022-12-27T16:23:48.074Z,3.28
2022-12-27T16:26:15.854Z,2.22
2022-12-27T16:29:05.340Z,1.60
2022-12-27T16:31:52.301Z,2.57
2022-12-27T16:34:30.624Z,2.38
2022-12-27T16:37:00.703Z,2.47
2022-12-27T16:39:49.935Z,3.67
2022-12-27T16:42:39.190Z,2.47
2022-12-27T16:45:39.373Z,4.07
2022-12-27T16:48:36.928Z,4.38
2022-12-27T16:51:16.551Z,4.10
2022-12-27T16:56:21.432Z,3.95
2022-12-27T16:58:49.712Z,3.30
2022-12-27T17:01:26.286Z,3.17
2022-12-27T17:03:55.960Z,2.78
2022-12-27T17:06:32.343Z,3.95
2022-12-27T17:09:09.932Z,3.45
2022-12-27T17:12:01.938Z,3.13
2022-12-27T17:14:37.131Z,2.78
2022-12-27T17:17:16.612Z,2.88
2022-12-27T17:20:07.658Z,2.60
2022-12-27T17:22:39.494Z,1.23
2022-12-27T17:25:14.333Z,3.60
2022-12-27T17:28:17.269Z,2.38
2022-12-27T17:31:06.059Z,2.90
2022-12-27T17:33:38.186Z,2.35
2022-12-27T17:37:03.847Z,2.25
2022-12-27T17:39:59.249Z,1.80
2022-12-27T17:43:07.143Z,2.00
2022-12-27T17:46:24.819Z,0.98
2022-12-27T17:48:56.103Z,0.93
2022-12-27T17:51:30.562Z,0.55
2022-12-27T17:54:17.213Z,0.57
2022-12-27T17:57:05.794Z,0.95
2022-12-27T17:59:35.347Z,2.20
2022-12-27T18:02:32.755Z,1.90
2022-12-27T18:05:06.362Z,2.78
2022-12-27T18:07:35.389Z,2.58
2022-12-27T18:10:25.831Z,2.35
2022-12-27T18:13:01.022Z,3.15
2022-12-27T18:15:34.242Z,2.63
2022-12-27T18:18:08.529Z,2.85
2022-12-27T18:20:40.813Z,3.30
2022-12-27T18:23:27.823Z,2.88
2022-12-27T18:26:17.308Z,2.95
2022-12-27T18:28:45.039Z,2.10
2022-12-27T18:31:26.413Z,3.22
2022-12-27T18:34:08.122Z,2.22
2022-12-27T18:36:48.981Z,1.95
2022-12-27T18:39:33.876Z,2.30
2022-12-27T18:42:35.550Z,2.83
2022-12-27T18:45:08.610Z,3.83
2022-12-27T18:47:45.889Z,3.42
2022-12-27T18:50:21.832Z,2.63
2022-12-27T18:53:20.910Z,4.20
2022-12-27T18:56:19.116Z,4.38
2022-12-27T18:59:01.061Z,3.78
2022-12-27T19:01:55.140Z,4.32
2022-12-27T19:04:33.620Z,5.53
2022-12-27T19:07:12.634Z,5.55
2022-12-27T19:09:51.052Z,5.80
2022-12-27T19:12:37.178Z,5.68
2022-12-27T19:15:24.940Z,5.70
2022-12-27T19:18:03.760Z,5.97
2022-12-27T19:20:36.946Z,4.45
2022-12-27T19:23:24.984Z,4.30
2022-12-27T19:26:20.793Z,4.75
2022-12-27T19:29:14.571Z,4.00
2022-12-27T19:31:51.184Z,3.60
2022-12-27T19:34:20.813Z,3.45
2022-12-27T19:36:49.615Z,3.10
2022-12-27T19:39:36.962Z,3.20
2022-12-27T19:42:08.410Z,2.95
2022-12-27T19:44:37.150Z,3.55
2022-12-27T19:47:05.106Z,3.78
2022-12-27T19:49:47.906Z,2.90
2022-12-27T19:52:25.625Z,4.00
2022-12-27T19:55:09.220Z,3.20
2022-12-27T19:57:40.113Z,3.25
2022-12-27T20:00:17.609Z,2.75
2022-12-27T20:02:46.107Z,2.90
2022-12-27T20:05:14.250Z,3.70
2022-12-27T20:07:42.482Z,3.67
2022-12-27T20:10:15.264Z,3.58
2022-12-27T20:12:43.289Z,3.42
2022-12-27T20:15:11.079Z,4.47
2022-12-27T20:17:44.604Z,3.45
2022-12-27T20:20:13.288Z,5.07
2022-12-27T20:22:41.312Z,4.28
2022-12-27T20:25:09.605Z,5.75
2022-12-27T20:27:37.485Z,4.45
2022-12-27T20:30:07.170Z,4.75
2022-12-27T20:32:36.017Z,4.75
2022-12-27T20:35:14.268Z,5.28
2022-12-27T20:37:46.390Z,4.68
2022-12-27T20:40:14.916Z,4.35
2022-12-27T20:42:56.160Z,4.07
2022-12-27T20:45:25.283Z,4.13
2022-12-27T20:47:53.143Z,4.22
2022-12-27T20:50:20.688Z,3.03
2022-12-27T20:52:48.633Z,4.28
2022-12-27T20:55:16.206Z,3.92
2022-12-27T20:57:44.686Z,3.50
2022-12-27T21:00:14.013Z,4.25
2022-12-27T21:02:42.352Z,3.53
2022-12-27T21:05:10.140Z,3.53
2022-12-27T21:07:38.056Z,4.18
2022-12-27T21:10:06.292Z,3.10
2022-12-27T21:12:35.481Z,3.10
2022-12-27T21:15:04.890Z,3.45
2022-12-27T21:20:00.373Z,2.63
2022-12-27T21:22:28.455Z,3.40
2022-12-27T21:24:56.004Z,3.70
2022-12-27T21:27:24.121Z,2.50
2022-12-27T21:29:51.781Z,2.60
2022-12-27T21:32:19.748Z,4.30
2022-12-27T21:34:47.994Z,3.22
2022-12-27T21:37:16.191Z,3.30
2022-12-27T21:39:43.807Z,2.53
2022-12-27T21:42:12.456Z,2.83
2022-12-27T21:44:40.021Z,3.03
2022-12-27T21:47:07.947Z,3.60
2022-12-27T21:49:36.620Z,3.67
2022-12-27T21:52:04.861Z,3.63
2022-12-27T21:54:32.618Z,2.88
2022-12-27T21:57:00.593Z,3.35
2022-12-27T21:59:28.352Z,2.55
2022-12-27T22:01:56.681Z,3.30
2022-12-27T22:04:24.348Z,2.78
2022-12-27T22:06:52.257Z,2.17
2022-12-27T22:09:19.960Z,2.05
2022-12-27T22:11:48.209Z,2.85
2022-12-27T22:14:16.165Z,2.25
2022-12-27T22:16:44.109Z,2.55
2022-12-27T22:19:13.270Z,1.55
2022-12-27T22:24:17.256Z,1.85
2022-12-27T22:26:45.457Z,2.53
2022-12-27T22:29:13.169Z,3.03
2022-12-27T22:31:42.898Z,2.75
2022-12-27T22:36:38.453Z,3.10
2022-12-27T22:39:06.187Z,3.63
2022-12-27T22:41:36.474Z,7.65
2022-12-27T22:44:10.978Z,3.78
2022-12-27T22:47:06.793Z,5.15
2022-12-27T22:49:26.774Z,2.20
2022-12-27T22:51:54.633Z,2.45
2022-12-27T22:55:03.962Z,2.17
2022-12-27T22:57:10.423Z,1.77
2022-12-27T22:59:38.002Z,2.17
2022-12-27T23:02:05.956Z,1.42
2022-12-27T23:04:33.802Z,2.22
2022-12-27T23:07:02.295Z,1.75
2022-12-27T23:09:30.224Z,1.98
2022-12-27T23:11:58.229Z,1.80
2022-12-27T23:14:26.054Z,1.85
2022-12-27T23:16:53.909Z,1.38
2022-12-27T23:19:24.445Z,1.98
2022-12-27T23:21:52.554Z,1.52
2022-12-27T23:24:20.195Z,1.38
2022-12-27T23:26:48.156Z,1.30
2022-12-27T23:29:15.912Z,1.48
2022-12-27T23:31:55.217Z,1.15
2022-12-27T23:34:28.097Z,1.63
2022-12-27T23:36:58.998Z,1.60
2022-12-27T23:39:27.343Z,2.22
2022-12-27T23:41:55.728Z,1.90
2022-12-27T23:44:33.160Z,2.22
2022-12-27T23:47:03.584Z,3.75
2022-12-27T23:49:31.330Z,5.18
2022-12-27T23:51:59.318Z,3.45
2022-12-27T23:54:26.886Z,3.25
2022-12-27T23:56:54.799Z,2.88
2022-12-27T23:59:22.410Z,2.53
